Time;durP1;ratioP1;P1;durP2;ratioP2;P2;SDS_P1;SDS_P2;PMS_P1;PMS_P2;Temp;Humidity;BMP_temperature;BMP_pressure;BME280_temperature;BME280_humidity;BME280_pressure;Samples;Min_cycle;Max_cycle;Signal;HPM_P1;HPM_P2
2022/11/29 00:00:19;;;;;;;20.90;13.45;;;;;;;3.86;90.02;95819.38;2100597;28;20057;-57
2022/11/29 00:01:24;;;;;;;20.63;14.02;;;;;;;3.87;90.22;95809.06;2100996;28;20040;-61
2022/11/29 00:02:25;;;;;;;20.88;14.15;;;;;;;3.88;90.29;95809.91;2100900;28;20040;-60
2022/11/29 00:03:26;;;;;;;23.05;15.07;;;;;;;3.86;90.00;95812.50;2101228;28;20052;-60
2022/11/29 00:04:27;;;;;;;21.67;13.52;;;;;;;3.87;89.90;95809.06;2100329;28;20049;-60
2022/11/29 00:05:28;;;;;;;23.25;14.13;;;;;;;3.81;90.79;95813.50;2100211;28;20476;-59
2022/11/29 00:06:30;;;;;;;21.88;15.25;;;;;;;3.75;91.60;95812.75;2101112;28;20052;-63
2022/11/29 00:07:32;;;;;;;24.38;15.48;;;;;;;3.69;91.83;95812.91;2100161;28;20049;-63
2022/11/29 00:08:34;;;;;;;21.50;14.98;;;;;;;3.73;91.79;95811.09;2100318;28;20055;-63
2022/11/29 00:09:35;;;;;;;24.58;15.27;;;;;;;3.78;91.65;95818.72;2100468;28;20482;-63
2022/11/29 00:10:36;;;;;;;21.88;15.60;;;;;;;3.78;91.62;95819.56;2100952;28;20051;-63
2022/11/29 00:12:57;;;;;;;23.50;15.15;;;;;;;3.76;92.02;95813.59;2101123;28;20060;-54
2022/11/29 00:13:58;;;;;;;23.65;15.57;;;;;;;3.75;92.08;95811.94;2100972;28;20029;-55
2022/11/29 00:14:59;;;;;;;23.77;14.90;;;;;;;3.77;92.33;95810.19;2100705;28;20045;-54
2022/11/29 00:16:04;;;;;;;22.35;16.15;;;;;;;3.75;91.92;95807.63;2101395;28;20024;-54
2022/11/29 00:17:05;;;;;;;23.67;15.70;;;;;;;3.71;91.93;95818.84;2100922;28;20055;-54
2022/11/29 00:18:06;;;;;;;23.77;15.98;;;;;;;3.70;92.26;95806.88;2101012;28;20032;-55
2022/11/29 00:19:08;;;;;;;26.08;17.70;;;;;;;3.71;92.57;95806.00;2100950;28;20036;-54
2022/11/29 00:20:10;;;;;;;26.67;17.55;;;;;;;3.74;93.05;95811.09;2100796;28;20036;-55
2022/11/29 00:21:11;;;;;;;23.55;16.23;;;;;;;3.76;92.25;95806.72;2100754;28;20045;-55
2022/11/29 00:22:12;;;;;;;24.02;16.13;;;;;;;3.75;92.07;95810.19;2099118;28;20380;-55
2022/11/29 00:23:13;;;;;;;29.08;18.20;;;;;;;3.80;92.02;95810.09;2099564;28;20040;-55
2022/11/29 00:24:14;;;;;;;28.50;16.60;;;;;;;3.79;92.05;95810.97;2099621;28;20044;-54
2022/11/29 00:25:15;;;;;;;25.45;16.30;;;;;;;3.75;92.70;95817.91;2099742;28;20400;-54
2022/11/29 00:26:16;;;;;;;29.45;17.42;;;;;;;3.78;92.75;95809.28;2098809;28;20052;-55
2022/11/29 00:27:18;;;;;;;28.17;18.08;;;;;;;3.75;92.61;95807.63;2099644;28;20032;-54
2022/11/29 00:28:19;;;;;;;26.88;17.55;;;;;;;3.73;93.10;95804.25;2098941;28;20048;-55
2022/11/29 00:29:20;;;;;;;27.23;18.02;;;;;;;3.71;93.02;95806.00;2098922;28;20480;-54
2022/11/29 00:30:21;;;;;;;25.55;17.95;;;;;;;3.68;93.89;95805.22;2099640;28;20032;-56
2022/11/29 00:31:29;;;;;;;26.70;18.23;;;;;;;3.56;93.63;95782.44;2100015;28;20049;-60
2022/11/29 00:32:30;;;;;;;28.23;19.35;;;;;;;3.71;93.90;95807.72;2099307;28;20041;-60
2022/11/29 00:33:31;;;;;;;29.90;18.13;;;;;;;3.73;93.92;95805.97;2099623;28;20377;-60
2022/11/29 00:34:32;;;;;;;27.20;18.88;;;;;;;3.74;94.00;95803.38;2099436;28;20032;-61
2022/11/29 00:35:33;;;;;;;27.08;18.60;;;;;;;3.76;93.57;95801.59;2099556;28;20130;-61
2022/11/29 00:36:34;;;;;;;31.45;21.45;;;;;;;3.72;93.75;95806.88;2099719;28;20373;-57
2022/11/29 00:37:35;;;;;;;27.85;19.02;;;;;;;3.76;93.58;95801.59;2098764;28;20052;-57
2022/11/29 00:38:36;;;;;;;28.65;19.10;;;;;;;3.79;93.93;95804.97;2099802;28;20099;-57
2022/11/29 00:39:38;;;;;;;28.52;19.98;;;;;;;3.81;93.78;95804.06;2099370;28;20055;-57
2022/11/29 00:40:39;;;;;;;34.25;21.75;;;;;;;3.82;94.02;95805.75;2098693;28;20060;-57
2022/11/29 00:41:40;;;;;;;30.35;20.75;;;;;;;3.74;94.38;95800.81;2099896;28;20052;-57
2022/11/29 00:42:41;;;;;;;31.42;19.90;;;;;;;3.72;94.59;95796.59;2098851;28;20048;-57
2022/11/29 00:43:42;;;;;;;33.05;20.27;;;;;;;3.80;94.67;95809.25;2099354;28;20048;-57
2022/11/29 00:44:43;;;;;;;32.00;20.80;;;;;;;3.79;93.93;95804.97;2099391;28;20047;-57
2022/11/29 00:45:44;;;;;;;29.17;20.40;;;;;;;3.82;94.34;95798.03;2099525;28;20375;-58
2022/11/29 00:46:45;;;;;;;30.63;21.83;;;;;;;3.82;94.31;95797.19;2099684;28;20036;-54
2022/11/29 00:47:46;;;;;;;35.13;22.75;;;;;;;3.84;94.15;95800.59;2099404;28;20048;-56
2022/11/29 00:48:47;;;;;;;33.90;22.77;;;;;;;3.84;93.97;95801.41;2099145;28;20423;-55
2022/11/29 00:49:49;;;;;;;37.80;23.00;;;;;;;3.67;94.05;95776.16;2099460;28;20041;-55
2022/11/29 00:50:50;;;;;;;35.88;22.08;;;;;;;3.86;94.15;95809.09;2099351;28;20040;-55
2022/11/29 00:51:51;;;;;;;33.83;22.40;;;;;;;3.87;93.79;95803.06;2099717;28;20395;-62
2022/11/29 00:52:52;;;;;;;33.90;22.77;;;;;;;3.75;94.33;95787.09;2099285;28;20045;-62
2022/11/29 00:53:53;;;;;;;34.30;22.50;;;;;;;3.88;94.18;95802.22;2099449;28;20059;-61
2022/11/29 00:54:54;;;;;;;34.47;22.98;;;;;;;3.86;93.92;95802.25;2099475;28;20049;-62
2022/11/29 00:55:55;;;;;;;47.85;26.42;;;;;;;3.87;94.40;95806.47;2099265;28;20048;-61
2022/11/29 00:56:56;;;;;;;35.85;24.27;;;;;;;3.88;94.29;95799.66;2099660;28;20472;-57
2022/11/29 00:57:57;;;;;;;32.97;21.92;;;;;;;3.88;94.23;95802.22;2099341;28;20048;-58
2022/11/29 00:58:58;;;;;;;32.50;20.75;;;;;;;3.91;93.88;95797.00;2099308;28;20045;-57
2022/11/29 01:00:00;;;;;;;38.72;23.83;;;;;;;3.92;93.67;95808.94;2099454;28;20040;-58
2022/11/29 01:01:01;;;;;;;37.85;24.27;;;;;;;3.92;93.91;95803.81;2099326;28;20052;-58
2022/11/29 01:02:02;;;;;;;43.53;24.60;;;;;;;3.95;94.02;95804.56;2099426;28;20044;-57
2022/11/29 01:03:03;;;;;;;37.42;24.58;;;;;;;3.96;94.14;95801.13;2099105;28;20048;-58
2022/11/29 01:04:04;;;;;;;44.15;23.83;;;;;;;3.98;93.86;95798.50;2098694;28;20048;-58
2022/11/29 01:05:05;;;;;;;39.30;25.15;;;;;;;3.98;93.74;95798.50;2099344;28;20377;-58
2022/11/29 01:06:08;;;;;;;42.00;25.80;;;;;;;4.00;94.18;95798.50;2099304;28;20033;-58
2022/11/29 01:07:10;;;;;;;39.47;25.30;;;;;;;4.02;93.82;95800.13;2099509;28;20051;-58
2022/11/29 01:08:11;;;;;;;40.05;24.40;;;;;;;3.94;93.85;95786.63;2099433;28;20052;-58
2022/11/29 01:09:12;;;;;;;41.22;25.35;;;;;;;4.00;93.81;95795.91;2099377;28;20048;-58
2022/11/29 01:10:13;;;;;;;39.38;24.88;;;;;;;4.00;94.67;95799.31;2099269;28;20040;-58
2022/11/29 01:11:20;;;;;;;37.20;24.20;;;;;;;4.02;94.31;95800.13;2099288;28;20040;-60
2022/11/29 01:12:21;;;;;;;39.42;24.73;;;;;;;4.07;94.70;95803.44;2098641;28;20059;-61
2022/11/29 01:13:22;;;;;;;40.60;25.52;;;;;;;4.03;94.17;95794.09;2099207;28;20480;-61
2022/11/29 01:14:23;;;;;;;44.35;26.25;;;;;;;4.06;94.18;95801.72;2098574;28;20040;-61
2022/11/29 01:15:24;;;;;;;41.47;25.73;;;;;;;4.08;94.13;95807.69;2099293;28;20051;-61
2022/11/29 01:16:26;;;;;;;42.30;24.33;;;;;;;4.05;94.14;95799.22;2099432;28;20053;-57
2022/11/29 01:17:27;;;;;;;42.40;25.65;;;;;;;4.07;94.42;95798.31;2099284;28;20060;-57
2022/11/29 01:18:29;;;;;;;45.20;26.38;;;;;;;4.09;94.90;95800.81;2099239;28;20128;-57
2022/11/29 01:19:30;;;;;;;44.65;25.77;;;;;;;4.09;94.51;95799.13;2098512;28;20048;-58
2022/11/29 01:20:31;;;;;;;41.40;24.73;;;;;;;4.09;94.60;95801.69;2099476;28;20052;-58
2022/11/29 01:21:32;;;;;;;36.83;22.35;;;;;;;4.08;94.90;95797.41;2098192;28;20057;-60
2022/11/29 01:22:34;;;;;;;40.90;24.27;;;;;;;4.03;95.12;95798.41;2097681;28;20052;-59
2022/11/29 01:23:35;;;;;;;45.40;25.67;;;;;;;4.01;95.51;95798.47;2099219;28;20083;-59
2022/11/29 01:24:36;;;;;;;43.13;25.38;;;;;;;4.03;95.39;95799.25;2098306;28;20048;-59
2022/11/29 01:25:37;;;;;;;37.38;23.10;;;;;;;4.02;95.42;95795.00;2099557;28;20480;-60
2022/11/29 01:26:39;;;;;;;43.70;24.65;;;;;;;4.06;95.18;95799.16;2099020;28;20044;-59
2022/11/29 01:27:40;;;;;;;40.63;24.73;;;;;;;4.07;95.38;95793.16;2098323;28;20048;-60
2022/11/29 01:28:41;;;;;;;34.63;22.75;;;;;;;4.08;94.99;95794.84;2099228;28;20048;-59
2022/11/29 01:29:42;;;;;;;38.53;24.38;;;;;;;4.11;94.67;95797.31;2099336;28;20052;-59
2022/11/29 01:30:45;;;;;;;39.13;24.10;;;;;;;4.08;95.10;95794.84;2099410;28;20045;-59
2022/11/29 01:31:46;;;;;;;40.13;24.67;;;;;;;4.04;95.57;95798.38;2098962;28;20060;-61
2022/11/29 01:32:47;;;;;;;44.03;26.00;;;;;;;4.06;95.30;95803.47;2098934;28;20060;-61
2022/11/29 01:33:52;;;;;;;38.75;24.55;;;;;;;4.03;95.24;95791.53;2097376;28;20053;-60
2022/11/29 01:34:53;;;;;;;39.95;24.98;;;;;;;4.04;95.82;95798.38;2099135;28;20047;-61
2022/11/29 01:35:54;;;;;;;40.75;24.58;;;;;;;4.01;95.82;95795.91;2099032;28;20399;-60
2022/11/29 01:36:55;;;;;;;38.72;24.13;;;;;;;3.96;95.92;95793.44;2098332;28;20044;-61
2022/11/29 01:37:56;;;;;;;38.65;23.90;;;;;;;3.98;95.99;95801.09;2099069;28;20051;-60
2022/11/29 01:38:59;;;;;;;42.08;25.77;;;;;;;4.02;95.84;95800.13;2098962;28;20499;-60
2022/11/29 01:40:00;;;;;;;38.83;24.70;;;;;;;4.00;96.18;95790.78;2098816;28;20036;-60
2022/11/29 01:41:12;;;;;;;50.88;28.45;;;;;;;4.05;95.90;95800.06;2099000;28;20032;-61
2022/11/29 01:42:13;;;;;;;41.30;25.85;;;;;;;4.06;95.79;95801.72;2098838;28;20047;-60
2022/11/29 01:43:15;;;;;;;43.05;26.13;;;;;;;4.09;96.12;95798.25;2099041;28;20094;-61
2022/11/29 01:44:16;;;;;;;43.20;25.33;;;;;;;4.10;95.26;95805.09;2098594;28;20463;-60
2022/11/29 01:45:22;;;;;;;39.05;24.33;;;;;;;4.11;95.83;95802.47;2098113;28;20169;-60
2022/11/29 01:46:23;;;;;;;44.67;26.35;;;;;;;4.05;96.31;95796.66;2101867;28;20032;-61
2022/11/29 01:47:24;;;;;;;43.70;27.08;;;;;;;4.05;95.96;95794.91;2098819;28;20122;-61
2022/11/29 01:48:27;;;;;;;43.95;25.88;;;;;;;4.09;96.02;95803.38;2097884;28;20057;-60
2022/11/29 01:49:31;;;;;;;41.47;25.60;;;;;;;4.09;95.87;95801.69;2098250;28;20044;-60
2022/11/29 01:50:33;;;;;;;44.25;27.75;;;;;;;4.04;96.15;95798.38;2098210;28;20159;-61
2022/11/29 01:51:34;;;;;;;42.95;25.42;;;;;;;4.08;96.15;95796.56;2098406;28;20376;-60
2022/11/29 01:52:35;;;;;;;45.55;26.80;;;;;;;4.08;96.56;95799.13;2090008;28;20053;-60
2022/11/29 01:53:37;;;;;;;44.03;26.33;;;;;;;4.10;96.29;95794.81;2089844;28;20036;-60
2022/11/29 01:54:40;;;;;;;46.75;27.38;;;;;;;4.07;96.19;95794.91;2097862;28;20381;-60
2022/11/29 01:55:44;;;;;;;43.20;26.42;;;;;;;4.09;96.16;95795.69;2090233;28;20116;-60
2022/11/29 01:56:46;;;;;;;44.67;27.15;;;;;;;4.08;96.66;95791.44;2090295;28;20063;-55
2022/11/29 01:57:47;;;;;;;47.95;28.05;;;;;;;4.08;96.27;95797.41;2089910;28;20049;-55
2022/11/29 01:58:48;;;;;;;54.50;28.35;;;;;;;4.05;96.61;95789.78;2089576;28;20044;-54
2022/11/29 01:59:51;;;;;;;44.00;27.25;;;;;;;4.13;96.37;95792.16;2098112;28;20049;-55
2022/11/29 02:00:52;;;;;;;45.70;26.63;;;;;;;4.17;96.54;95793.75;2097984;28;20377;-55
2022/11/29 02:01:55;;;;;;;45.13;27.35;;;;;;;4.15;96.27;95796.38;2089455;28;20053;-55
2022/11/29 02:03:23;;;;;;;44.00;25.70;;;;;;;4.11;96.83;95793.91;2098174;28;20056;-55
2022/11/29 02:04:24;;;;;;;47.25;27.88;;;;;;;4.02;96.79;95789.88;2096977;28;20059;-54
2022/11/29 02:05:25;;;;;;;48.00;28.10;;;;;;;4.07;96.37;95789.75;2097540;28;20056;-54
2022/11/29 02:06:27;;;;;;;51.10;28.48;;;;;;;4.07;97.36;95794.91;2097425;28;20052;-60
2022/11/29 02:07:28;;;;;;;53.97;28.38;;;;;;;4.09;97.02;95790.53;2098242;28;20447;-59
2022/11/29 02:08:36;;;;;;;45.88;27.38;;;;;;;4.06;96.75;95783.75;2098137;28;20045;-59
2022/11/29 02:09:37;;;;;;;51.78;28.90;;;;;;;4.12;97.28;95796.47;2089399;28;20500;-59
2022/11/29 02:11:18;;;;;;;48.42;28.75;;;;;;;4.16;96.60;95795.50;2090084;28;20049;-59
2022/11/29 02:12:32;;;;;;;50.75;28.92;;;;;;;4.08;97.14;95792.28;2099015;28;20052;-57
2022/11/29 02:13:38;;;;;;;52.05;29.38;;;;;;;4.10;97.05;95787.94;2098430;28;20067;-57
2022/11/29 02:14:49;;;;;;;57.58;29.60;;;;;;;4.11;96.85;95779.34;2098092;28;20468;-58
2022/11/29 02:16:17;;;;;;;47.95;27.35;;;;;;;4.13;97.32;95787.84;2091216;28;20040;-58
2022/11/29 02:17:42;;;;;;;48.83;28.35;;;;;;;4.14;96.82;95788.69;2093813;28;20060;-60
2022/11/29 02:19:02;;;;;;;49.70;28.48;;;;;;;4.14;97.10;95793.84;2097811;28;20469;-60
2022/11/29 02:20:34;;;;;;;47.85;27.80;;;;;;;4.19;97.03;95792.00;2089869;28;20099;-61
2022/11/29 02:22:26;;;;;;;47.20;26.77;;;;;;;4.20;97.01;95791.97;2094890;28;20044;-60
2022/11/29 02:23:46;;;;;;;45.85;26.95;;;;;;;4.22;97.34;95793.66;2080469;28;20041;-61
2022/11/29 02:24:47;;;;;;;39.85;24.15;;;;;;;4.24;96.78;95794.47;2098100;28;20048;-60
2022/11/29 02:26:01;;;;;;;53.15;27.88;;;;;;;4.22;96.75;95785.94;2097854;28;20119;-60
2022/11/29 02:27:15;;;;;;;49.20;28.60;;;;;;;4.23;96.77;95785.06;2097860;28;20136;-60
2022/11/29 02:28:22;;;;;;;47.40;26.15;;;;;;;4.20;96.93;95786.84;2098078;28;20404;-60
2022/11/29 02:29:28;;;;;;;48.72;27.50;;;;;;;4.19;96.78;95787.69;2098204;28;20059;-60
2022/11/29 02:30:52;;;;;;;46.38;26.17;;;;;;;4.23;97.00;95788.47;2098131;28;20420;-61
2022/11/29 02:32:31;;;;;;;46.78;26.13;;;;;;;4.24;96.67;95784.19;2092221;28;20045;-60
2022/11/29 02:34:01;;;;;;;41.17;25.25;;;;;;;4.17;96.86;95786.91;2097538;28;20424;-60
2022/11/29 02:35:39;;;;;;;47.33;26.63;;;;;;;4.16;97.37;95787.78;2097332;28;20488;-60
2022/11/29 02:37:15;;;;;;;47.88;26.70;;;;;;;4.23;97.23;95788.47;2098741;28;20399;-60
2022/11/29 02:38:22;;;;;;;48.05;26.42;;;;;;;4.23;97.31;95782.50;2088751;28;20049;-60
2022/11/29 02:39:32;;;;;;;52.30;28.15;;;;;;;4.17;97.84;95783.47;2093124;28;20052;-60
2022/11/29 02:40:44;;;;;;;53.42;27.58;;;;;;;4.19;97.37;95787.69;2098014;28;20500;-60
2022/11/29 02:42:03;;;;;;;54.08;28.48;;;;;;;4.21;97.34;95787.66;2098317;28;20048;-55
2022/11/29 02:43:25;;;;;;;42.45;25.60;;;;;;;4.22;97.38;95785.94;2097963;28;20456;-55
2022/11/29 02:44:51;;;;;;;50.50;28.10;;;;;;;4.25;97.82;95791.00;2093314;28;20063;-55
2022/11/29 02:46:22;;;;;;;50.08;27.45;;;;;;;4.25;97.57;95791.00;2097963;28;20044;-56
2022/11/29 02:47:47;;;;;;;42.05;25.30;;;;;;;4.23;97.55;95790.22;2097594;28;20048;-59
2022/11/29 02:48:56;;;;;;;41.85;24.55;;;;;;;4.25;97.01;95793.56;2092202;28;20040;-60
2022/11/29 02:50:06;;;;;;;46.05;26.88;;;;;;;4.26;97.70;95792.69;2090515;28;20056;-59
2022/11/29 02:51:17;;;;;;;40.20;24.52;;;;;;;4.30;97.54;95794.28;2096978;28;20503;-60
2022/11/29 02:53:07;;;;;;;40.08;23.70;;;;;;;4.31;97.16;95790.84;2097810;28;20044;-60
2022/11/29 02:54:26;;;;;;;40.28;23.73;;;;;;;4.32;97.23;95787.38;2089260;28;20551;-59
2022/11/29 02:55:33;;;;;;;41.65;24.98;;;;;;;4.32;96.93;95788.22;2092043;28;20065;-60
2022/11/29 02:57:24;;;;;;;41.60;24.35;;;;;;;4.36;96.97;95795.00;2090928;28;20107;-60
2022/11/29 02:58:45;;;;;;;40.53;23.10;;;;;;;4.28;96.78;95790.94;2091259;28;20048;-60
2022/11/29 02:59:51;;;;;;;42.10;24.33;;;;;;;4.29;96.65;95784.91;2083621;28;20069;-60
2022/11/29 03:01:20;;;;;;;63.65;29.98;;;;;;;4.33;97.04;95789.94;2074982;28;20148;-59
2022/11/29 03:02:31;;;;;;;43.65;23.95;;;;;;;4.29;96.34;95782.34;2084175;28;20047;-59
2022/11/29 03:03:36;;;;;;;41.83;25.60;;;;;;;4.33;97.43;95795.09;2096611;28;20053;-59
2022/11/29 03:04:42;;;;;;;44.80;25.85;;;;;;;4.32;97.21;95789.97;2089400;28;20059;-60
2022/11/29 03:06:14;;;;;;;38.03;23.25;;;;;;;4.35;97.16;95787.31;2074489;28;20544;-59
2022/11/29 03:07:26;;;;;;;36.15;23.00;;;;;;;4.35;96.94;95788.16;2082663;28;20041;-56
2022/11/29 03:08:30;;;;;;;45.47;24.63;;;;;;;4.32;97.14;95792.53;2097041;28;20570;-56
2022/11/29 03:09:44;;;;;;;55.03;27.23;;;;;;;4.27;97.28;95781.53;2097574;28;20047;-55
2022/11/29 03:11:11;;;;;;;51.28;27.55;;;;;;;4.30;97.21;95795.13;2088583;28;20464;-55
2022/11/29 03:12:12;;;;;;;40.92;23.88;;;;;;;4.32;97.62;95800.25;2088137;28;20068;-56
2022/11/29 03:13:21;;;;;;;46.85;26.23;;;;;;;4.36;97.05;95784.72;2097923;28;20119;-55
2022/11/29 03:14:27;;;;;;;40.10;24.65;;;;;;;4.40;96.52;95800.88;2088565;28;20053;-55
2022/11/29 03:15:40;;;;;;;38.38;23.77;;;;;;;4.40;96.83;95799.16;2090378;28;20469;-55
2022/11/29 03:16:52;;;;;;;41.38;22.98;;;;;;;4.38;97.13;95794.94;2089608;28;20060;-55
2022/11/29 03:18:18;;;;;;;38.50;23.58;;;;;;;4.36;96.76;95794.16;2091662;28;20044;-54
2022/11/29 03:19:54;;;;;;;41.25;23.95;;;;;;;4.39;96.73;95799.22;2097921;28;20053;-54
2022/11/29 03:21:33;;;;;;;43.10;24.65;;;;;;;4.40;96.49;95803.47;2086548;28;20040;-54
2022/11/29 03:23:05;;;;;;;45.83;24.15;;;;;;;4.37;96.38;95806.13;2078857;28;20045;-54
2022/11/29 03:24:38;;;;;;;36.67;21.95;;;;;;;4.36;96.86;95799.28;2095076;28;20511;-54
2022/11/29 03:25:56;;;;;;;42.83;25.05;;;;;;;4.33;96.81;95800.22;2089958;28;20043;-55
2022/11/29 03:27:02;;;;;;;41.30;24.98;;;;;;;4.36;96.71;95804.44;2094551;28;20051;-58
2022/11/29 03:28:14;;;;;;;45.72;25.17;;;;;;;4.34;96.65;95801.91;2090981;28;20044;-57
2022/11/29 03:29:28;;;;;;;40.40;24.33;;;;;;;4.35;97.29;95792.44;2081856;28;20051;-58
2022/11/29 03:30:31;;;;;;;47.80;26.48;;;;;;;4.38;96.75;95800.06;2076972;28;20058;-58
2022/11/29 03:31:36;;;;;;;38.40;22.77;;;;;;;4.39;96.55;95800.06;2081635;28;20041;-58
2022/11/29 03:32:50;;;;;;;40.40;23.95;;;;;;;4.37;96.58;95785.56;2096895;28;20048;-58
2022/11/29 03:34:28;;;;;;;39.03;24.02;;;;;;;4.44;96.65;95805.09;2081185;28;20061;-58
2022/11/29 03:35:38;;;;;;;38.45;23.33;;;;;;;4.44;96.30;95807.66;2092519;28;20404;-58
2022/11/29 03:37:02;;;;;;;38.70;23.10;;;;;;;4.46;96.06;95810.16;2098280;28;20079;-58
2022/11/29 03:38:22;;;;;;;37.17;22.08;;;;;;;4.42;96.38;95814.56;2089292;28;20500;-58
2022/11/29 03:39:27;;;;;;;45.40;24.10;;;;;;;4.35;96.72;95808.72;2092528;28;20420;-58
2022/11/29 03:40:38;;;;;;;52.10;27.27;;;;;;;4.30;97.19;95810.56;2097277;28;20052;-57
2022/11/29 03:41:42;;;;;;;33.50;20.75;;;;;;;4.32;96.87;95811.38;2090832;28;20494;-57
2022/11/29 03:42:50;;;;;;;33.30;21.02;;;;;;;4.28;96.96;95817.50;2088909;28;20048;-57
2022/11/29 03:43:59;;;;;;;33.92;21.52;;;;;;;4.35;97.05;95811.28;2090264;28;20041;-58
2022/11/29 03:45:29;;;;;;;39.85;23.65;;;;;;;4.37;97.03;95811.25;2089157;28;20469;-58
2022/11/29 03:46:41;;;;;;;43.47;24.45;;;;;;;4.26;96.80;95803.81;2080951;28;20063;-60
2022/11/29 03:47:49;;;;;;;36.67;23.42;;;;;;;4.33;97.32;95815.66;2088814;28;20405;-60
2022/11/29 03:48:53;;;;;;;40.75;22.98;;;;;;;4.37;97.38;95816.41;2097790;28;20055;-60
2022/11/29 03:50:05;;;;;;;29.73;20.40;;;;;;;4.39;96.90;95810.34;2081278;28;20052;-60
2022/11/29 03:51:12;;;;;;;39.58;23.67;;;;;;;4.41;96.66;95818.00;2083576;28;20045;-60
2022/11/29 03:52:43;;;;;;;42.83;24.13;;;;;;;4.39;97.20;95814.63;2097338;28;20048;-60
2022/11/29 03:53:49;;;;;;;38.28;22.20;;;;;;;4.29;97.09;95806.31;2087880;28;20052;-60
2022/11/29 03:55:18;;;;;;;48.22;25.23;;;;;;;4.38;97.21;95812.94;2097747;28;20048;-59
2022/11/29 03:56:22;;;;;;;;;;;;;;;4.42;97.03;95809.41;2098847;28;20052;-60
2022/11/29 03:57:33;;;;;;;39.08;22.30;;;;;;;4.34;97.26;95796.75;2098313;28;19999;-60
2022/11/29 03:58:52;;;;;;;42.25;24.08;;;;;;;4.40;96.57;95816.31;2090931;28;20048;-60
2022/11/29 04:00:05;;;;;;;44.00;23.35;;;;;;;4.37;97.13;95809.53;2087309;28;20036;-60
2022/11/29 04:01:27;;;;;;;;;;;;;;;4.41;96.82;95812.84;2085590;28;20041;-61
2022/11/29 04:02:56;;;;;;;41.38;22.75;;;;;;;4.41;96.36;95810.28;2093649;28;20390;-61
2022/11/29 04:04:25;;;;;;;39.58;23.10;;;;;;;4.32;97.00;95813.94;2099924;28;20059;-60
2022/11/29 04:05:41;;;;;;;36.65;21.45;;;;;;;4.33;97.18;95807.06;2099396;28;20451;-60
2022/11/29 04:07:06;;;;;;;33.55;20.85;;;;;;;4.36;96.97;95810.41;2099571;28;20036;-60
2022/11/29 04:08:26;;;;;;;31.67;20.23;;;;;;;4.38;97.24;95808.66;2099734;28;20032;-60
2022/11/29 04:09:48;;;;;;;35.67;22.05;;;;;;;4.39;97.12;95814.63;2090772;28;20044;-60
2022/11/29 04:11:11;;;;;;;39.42;21.83;;;;;;;4.36;97.71;95814.72;2093791;28;20041;-60
2022/11/29 04:12:36;;;;;;;39.78;22.30;;;;;;;4.39;97.59;95812.91;2099844;28;20043;-60
2022/11/29 04:13:46;;;;;;;42.25;24.38;;;;;;;4.37;97.52;95812.09;2098173;28;20044;-60
2022/11/29 04:15:16;;;;;;;40.45;22.95;;;;;;;4.42;97.55;95809.41;2098451;28;20427;-61
2022/11/29 04:16:39;;;;;;;34.70;22.40;;;;;;;4.46;97.44;95811.00;2098752;28;20048;-61
2022/11/29 04:18:10;;;;;;;38.60;21.77;;;;;;;4.47;97.73;95802.44;2098147;28;20048;-61
2022/11/29 04:19:33;;;;;;;33.17;21.23;;;;;;;4.40;97.68;95808.59;2099488;28;20040;-61
2022/11/29 04:20:52;;;;;;;35.13;22.35;;;;;;;4.39;97.23;95807.75;2097885;28;20392;-61
2022/11/29 04:22:01;;;;;;;41.53;23.27;;;;;;;4.38;97.44;95807.78;2092937;28;20044;-61
2022/11/29 04:23:27;;;;;;;38.60;23.13;;;;;;;4.36;97.34;95807.84;2099422;28;20040;-61
2022/11/29 04:24:34;;;;;;;38.22;23.65;;;;;;;4.37;96.95;95811.25;2099128;28;20048;-61
2022/11/29 04:26:06;;;;;;;47.50;26.30;;;;;;;4.39;97.28;95805.19;2099137;28;20049;-61
2022/11/29 04:27:43;;;;;;;37.85;24.60;;;;;;;4.45;97.13;95808.50;2099265;28;20070;-58
2022/11/29 04:28:56;;;;;;;45.97;25.05;;;;;;;4.46;97.03;95800.72;2099458;28;20494;-58
2022/11/29 04:30:07;;;;;;;52.42;27.25;;;;;;;4.43;97.17;95806.78;2098861;28;20048;-58
2022/11/29 04:31:15;;;;;;;55.53;27.90;;;;;;;4.42;96.96;95806.84;2083608;28;20049;-58
2022/11/29 04:32:58;;;;;;;59.20;28.20;;;;;;;4.45;97.26;95809.31;2091550;28;20080;-58
2022/11/29 04:34:33;;;;;;;48.65;26.10;;;;;;;4.45;97.16;95805.91;2081026;28;20041;-58
2022/11/29 04:35:44;;;;;;;45.83;25.02;;;;;;;4.46;97.38;95805.84;2099490;28;20479;-58
2022/11/29 04:36:56;;;;;;;48.20;25.95;;;;;;;4.48;96.93;95813.56;2098817;28;20471;-58
2022/11/29 04:38:21;;;;;;;43.50;24.90;;;;;;;4.50;97.29;95806.66;2092125;28;20051;-58
2022/11/29 04:39:41;;;;;;;44.97;25.25;;;;;;;4.50;97.01;95811.78;2098083;28;20045;-58
2022/11/29 04:41:03;;;;;;;45.08;25.60;;;;;;;4.48;97.21;95813.56;2099004;28;20048;-58
2022/11/29 04:42:07;;;;;;;36.90;22.98;;;;;;;4.49;97.03;95813.53;2099326;28;20043;-58
2022/11/29 04:43:18;;;;;;;45.83;26.35;;;;;;;4.49;97.37;95810.94;2099465;28;20037;-57
2022/11/29 04:44:37;;;;;;;42.30;24.10;;;;;;;4.51;96.77;95814.31;2099367;28;20048;-58
2022/11/29 04:45:42;;;;;;;;;;;;;;;4.54;96.60;95819.34;2099073;28;20052;-58
2022/11/29 04:46:58;;;;;;;40.50;22.77;;;;;;;4.53;97.13;95811.69;2098370;28;19912;-58
2022/11/29 04:48:22;;;;;;;39.60;24.05;;;;;;;4.53;96.82;95812.53;2099235;28;20040;-58
2022/11/29 04:49:35;;;;;;;41.72;24.75;;;;;;;4.52;96.67;95818.59;2101699;28;20487;-58
2022/11/29 04:50:51;;;;;;;43.00;24.23;;;;;;;4.54;97.24;95823.66;2099015;28;20055;-57
2022/11/29 04:52:14;;;;;;;41.47;25.25;;;;;;;4.49;96.60;95823.81;2099133;28;20040;-60
2022/11/29 04:53:29;;;;;;;41.17;24.35;;;;;;;4.50;97.64;95820.34;2098633;28;20408;-60
2022/11/29 04:54:35;;;;;;;38.25;23.15;;;;;;;4.50;96.68;95819.50;2098830;28;20043;-60
2022/11/29 04:55:52;;;;;;;47.83;26.25;;;;;;;4.45;97.17;95821.34;2082823;28;20171;-60
2022/11/29 04:57:18;;;;;;;42.72;24.95;;;;;;;4.44;97.39;95823.09;2078356;28;20048;-58
2022/11/29 04:59:13;;;;;;;35.53;23.27;;;;;;;4.49;97.52;95826.38;2087464;28;20503;-58
2022/11/29 05:00:16;;;;;;;47.95;25.25;;;;;;;4.47;97.00;95825.56;2081490;28;20112;-58
2022/11/29 05:01:22;;;;;;;36.22;23.35;;;;;;;4.51;97.29;95831.47;2073150;28;20049;-58
2022/11/29 05:02:40;;;;;;;34.58;21.88;;;;;;;4.52;97.07;95833.19;2070967;28;20561;-58
2022/11/29 05:03:44;;;;;;;41.78;25.30;;;;;;;4.52;97.35;95833.19;2091701;28;20508;-58
2022/11/29 05:04:52;;;;;;;47.45;25.70;;;;;;;4.42;97.12;95820.53;2083920;28;20111;-58
2022/11/29 05:06:04;;;;;;;44.40;25.63;;;;;;;4.50;97.32;95830.63;2075569;28;20045;-58
2022/11/29 05:07:27;;;;;;;43.22;25.48;;;;;;;4.45;97.16;95824.75;2085539;28;20489;-58
2022/11/29 05:08:54;;;;;;;41.20;24.60;;;;;;;4.42;97.69;95833.41;2090095;28;20389;-58
2022/11/29 05:10:16;;;;;;;49.75;26.77;;;;;;;4.45;97.12;95832.47;2089315;28;20040;-58
2022/11/29 05:11:20;;;;;;;49.35;26.33;;;;;;;4.39;97.51;95830.06;2098948;28;20356;-54
2022/11/29 05:12:38;;;;;;;44.72;25.02;;;;;;;4.41;97.84;95824.00;2097889;28;20049;-55
2022/11/29 05:13:57;;;;;;;44.25;25.23;;;;;;;4.48;97.88;95826.41;2092254;28;20052;-54
2022/11/29 05:15:17;;;;;;;46.08;26.30;;;;;;;4.48;97.80;95834.97;2097688;28;20053;-54
2022/11/29 05:16:32;;;;;;;50.28;28.20;;;;;;;4.49;97.38;95831.53;2098571;28;20396;-54
2022/11/29 05:17:56;;;;;;;96.88;34.53;;;;;;;4.47;97.18;95833.28;2099468;28;20787;-55
2022/11/29 05:19:09;;;;;;;53.50;28.00;;;;;;;4.46;97.29;95834.16;2097925;28;20140;-54
2022/11/29 05:20:33;;;;;;;46.63;27.65;;;;;;;4.49;97.04;95840.94;2098740;28;20392;-54
2022/11/29 05:21:40;;;;;;;44.88;26.70;;;;;;;4.48;97.15;95844.41;2097854;28;20044;-54
2022/11/29 05:22:57;;;;;;;44.95;26.80;;;;;;;4.47;96.90;95833.28;2097807;28;20048;-55
2022/11/29 05:24:21;;;;;;;38.63;23.25;;;;;;;4.47;97.15;95848.72;2090233;28;20051;-55
2022/11/29 05:25:46;;;;;;;34.58;22.00;;;;;;;4.42;97.17;95843.69;2081166;28;20052;-54
2022/11/29 05:27:42;;;;;;;42.95;26.05;;;;;;;4.42;96.92;95848.81;2096261;28;20415;-55
2022/11/29 05:28:53;;;;;;;43.35;26.00;;;;;;;4.41;97.50;95836.00;2081031;28;20041;-54
2022/11/29 05:30:05;;;;;;;57.72;28.90;;;;;;;4.46;97.18;95844.44;2073255;28;20082;-54
2022/11/29 05:31:21;;;;;;;62.72;31.10;;;;;;;4.46;97.08;95846.16;2091714;28;20048;-55
2022/11/29 05:32:32;;;;;;;63.22;32.25;;;;;;;4.47;96.75;95841.00;2098513;28;20045;-63